createdAt,value
2022-10-18T00:01:10.070Z,14.80
2022-10-18T00:03:39.093Z,14.80
2022-10-18T00:06:10.367Z,14.90
2022-10-18T00:08:39.946Z,14.90
2022-10-18T00:11:08.838Z,14.90
2022-10-18T00:13:37.806Z,14.80
2022-10-18T00:16:08.710Z,14.90
2022-10-18T00:18:37.245Z,14.90
2022-10-18T00:21:08.622Z,14.90
2022-10-18T00:23:37.347Z,14.90
2022-10-18T00:26:14.316Z,15.00
2022-10-18T00:28:43.754Z,15.00
2022-10-18T00:31:21.057Z,15.00
2022-10-18T00:33:52.207Z,15.00
2022-10-18T00:36:21.613Z,15.00
2022-10-18T00:38:50.661Z,14.90
2022-10-18T00:41:22.320Z,14.90
2022-10-18T00:44:02.778Z,14.90
2022-10-18T00:46:34.144Z,14.90
2022-10-18T00:49:11.129Z,14.90
2022-10-18T00:51:51.160Z,14.90
2022-10-18T00:54:21.544Z,14.90
2022-10-18T00:56:50.484Z,14.90
2022-10-18T00:59:20.450Z,14.80
2022-10-18T01:01:49.117Z,14.90
2022-10-18T01:04:19.784Z,14.90
2022-10-18T01:06:54.096Z,14.90
2022-10-18T01:09:28.192Z,14.90
2022-10-18T01:12:08.706Z,14.90
2022-10-18T01:14:59.624Z,14.90
2022-10-18T01:17:37.092Z,14.90
2022-10-18T01:20:32.584Z,14.90
2022-10-18T01:23:24.922Z,15.00
2022-10-18T01:26:14.102Z,15.00
2022-10-18T01:28:51.065Z,15.00
2022-10-18T01:31:28.801Z,15.00
2022-10-18T01:36:34.556Z,14.90
2022-10-18T01:39:06.160Z,14.80
2022-10-18T01:41:36.917Z,14.80
2022-10-18T01:44:08.812Z,14.80
2022-10-18T01:46:39.563Z,14.80
2022-10-18T01:49:08.639Z,14.90
2022-10-18T01:51:37.076Z,14.90
2022-10-18T01:54:05.893Z,14.80
2022-10-18T01:56:40.290Z,14.80
2022-10-18T01:59:32.463Z,14.80
2022-10-18T02:02:20.265Z,14.90
2022-10-18T02:05:09.245Z,14.80
2022-10-18T02:08:12.523Z,14.80
2022-10-18T02:10:37.123Z,14.80
2022-10-18T02:13:05.831Z,14.90
2022-10-18T02:15:37.340Z,14.80
2022-10-18T02:18:08.839Z,14.80
2022-10-18T02:20:38.962Z,14.80
2022-10-18T02:23:09.970Z,14.80
2022-10-18T02:25:39.580Z,14.80
2022-10-18T02:28:08.264Z,14.80
2022-10-18T02:30:42.488Z,14.80
2022-10-18T02:33:19.893Z,14.80
2022-10-18T02:35:54.078Z,14.80
2022-10-18T02:38:25.526Z,14.70
2022-10-18T02:40:54.147Z,14.70
2022-10-18T02:43:25.244Z,14.70
2022-10-18T02:45:54.091Z,14.80
2022-10-18T02:48:22.630Z,14.80
2022-10-18T02:50:51.117Z,14.80
2022-10-18T02:53:19.580Z,14.80
2022-10-18T02:55:48.126Z,14.80
2022-10-18T02:58:16.573Z,14.80
2022-10-18T03:00:45.050Z,14.80
2022-10-18T03:03:13.569Z,14.90
2022-10-18T03:05:42.163Z,14.90
2022-10-18T03:08:10.593Z,14.90
2022-10-18T03:10:39.094Z,14.90
2022-10-18T03:13:07.645Z,14.90
2022-10-18T03:15:36.102Z,14.90
2022-10-18T03:18:04.908Z,14.80
2022-10-18T03:20:34.230Z,14.80
2022-10-18T03:23:03.154Z,14.80
2022-10-18T03:25:31.728Z,14.80
2022-10-18T03:28:00.308Z,14.80
2022-10-18T03:30:28.789Z,14.80
2022-10-18T03:32:57.458Z,14.80
2022-10-18T03:35:25.980Z,14.80
2022-10-18T03:37:54.404Z,14.80
2022-10-18T03:40:23.336Z,14.90
2022-10-18T03:42:51.838Z,14.90
2022-10-18T03:45:20.290Z,14.80
2022-10-18T03:47:48.778Z,14.80
2022-10-18T03:50:17.323Z,14.80
2022-10-18T03:52:45.767Z,14.80
2022-10-18T03:55:14.370Z,14.80
2022-10-18T03:57:42.910Z,14.80
2022-10-18T04:00:12.525Z,14.70
2022-10-18T04:02:42.355Z,14.70
2022-10-18T04:05:11.106Z,14.80
2022-10-18T04:07:39.672Z,14.70
2022-10-18T04:10:08.862Z,14.70
2022-10-18T04:12:37.401Z,14.80
2022-10-18T04:15:06.280Z,14.80
2022-10-18T04:17:35.058Z,14.80
2022-10-18T04:20:04.558Z,14.80
2022-10-18T04:22:33.099Z,14.80
2022-10-18T04:25:03.254Z,14.80
2022-10-18T04:27:32.266Z,14.80
2022-10-18T04:30:01.145Z,14.90
2022-10-18T04:32:29.638Z,14.80
2022-10-18T04:34:58.244Z,14.90
2022-10-18T04:37:26.818Z,14.90
2022-10-18T04:39:55.383Z,14.90
2022-10-18T04:42:24.445Z,14.90
2022-10-18T04:44:52.901Z,14.90
2022-10-18T04:47:21.414Z,14.90
2022-10-18T04:49:49.991Z,14.90
2022-10-18T04:52:18.593Z,14.90
2022-10-18T04:54:47.078Z,14.80
2022-10-18T04:57:15.831Z,14.90
2022-10-18T04:59:44.378Z,14.90
2022-10-18T05:02:12.846Z,14.80
2022-10-18T05:04:41.314Z,14.80
2022-10-18T05:07:09.842Z,14.80
2022-10-18T05:09:38.283Z,14.80
2022-10-18T05:12:06.872Z,14.80
2022-10-18T05:14:35.443Z,14.80
2022-10-18T05:17:03.969Z,14.80
2022-10-18T05:19:32.576Z,14.80
2022-10-18T05:22:01.234Z,14.80
2022-10-18T05:24:29.880Z,14.90
2022-10-18T05:26:59.079Z,14.80
2022-10-18T05:31:56.259Z,14.80
2022-10-18T05:34:26.426Z,14.90
2022-10-18T05:36:54.893Z,14.90
2022-10-18T05:39:23.465Z,14.90
2022-10-18T05:41:51.962Z,14.90
2022-10-18T05:44:20.433Z,14.90
2022-10-18T05:46:48.878Z,14.90
2022-10-18T05:49:17.469Z,14.90
2022-10-18T05:51:45.936Z,14.90
2022-10-18T05:54:14.628Z,14.90
2022-10-18T05:56:43.230Z,14.90
2022-10-18T05:59:12.264Z,14.90
2022-10-18T06:01:42.424Z,14.90
2022-10-18T06:04:11.295Z,14.90
2022-10-18T06:06:40.578Z,14.90
2022-10-18T06:09:09.506Z,14.90
2022-10-18T06:11:38.348Z,14.90
2022-10-18T06:14:08.738Z,14.90
2022-10-18T06:19:05.726Z,14.90
2022-10-18T06:21:34.175Z,14.90
2022-10-18T06:24:02.731Z,14.90
2022-10-18T06:26:31.205Z,14.80
2022-10-18T06:28:59.764Z,14.80
2022-10-18T06:31:28.301Z,14.90
2022-10-18T06:34:01.233Z,14.90
2022-10-18T06:36:29.944Z,14.80
2022-10-18T06:38:59.842Z,14.90
2022-10-18T06:41:28.320Z,14.90
2022-10-18T06:43:58.492Z,14.90
2022-10-18T06:46:27.474Z,15.00
2022-10-18T06:48:57.505Z,15.00
2022-10-18T06:51:26.013Z,15.00
2022-10-18T06:54:06.296Z,15.00
2022-10-18T06:56:24.698Z,15.00
2022-10-18T06:58:53.229Z,15.00
2022-10-18T07:01:21.950Z,15.00
2022-10-18T07:03:52.408Z,15.00
2022-10-18T07:06:21.431Z,14.90
2022-10-18T07:08:52.670Z,14.90
2022-10-18T07:11:26.740Z,15.00
2022-10-18T07:13:59.488Z,15.00
2022-10-18T07:16:28.044Z,15.00
2022-10-18T07:18:56.551Z,15.00
2022-10-18T07:21:26.549Z,15.00
2022-10-18T07:23:55.263Z,15.00
2022-10-18T07:26:27.304Z,15.00
2022-10-18T07:29:01.675Z,15.00
2022-10-18T07:31:30.927Z,14.90
2022-10-18T07:33:59.533Z,15.00
2022-10-18T07:36:28.343Z,14.90
2022-10-18T07:38:56.879Z,15.00
2022-10-18T07:41:25.426Z,15.00
2022-10-18T07:43:54.422Z,15.00
2022-10-18T07:46:23.862Z,15.00
2022-10-18T07:48:52.901Z,15.00
2022-10-18T07:51:22.195Z,15.10
2022-10-18T07:53:50.663Z,15.00
2022-10-18T07:56:21.573Z,15.00
2022-10-18T07:58:52.671Z,15.10
2022-10-18T08:01:23.211Z,15.20
2022-10-18T08:03:52.685Z,15.20
2022-10-18T08:06:22.555Z,15.20
2022-10-18T08:08:51.193Z,15.20
2022-10-18T08:11:22.775Z,15.30
2022-10-18T08:13:52.368Z,15.30
2022-10-18T08:16:24.150Z,15.30
2022-10-18T08:18:53.417Z,15.30
2022-10-18T08:21:22.449Z,15.30
2022-10-18T08:23:51.376Z,15.30
2022-10-18T08:26:22.255Z,15.30
2022-10-18T08:29:10.187Z,15.20
2022-10-18T08:31:21.785Z,15.20
2022-10-18T08:33:50.378Z,15.30
2022-10-18T08:36:19.342Z,15.40
2022-10-18T08:38:49.202Z,15.40
2022-10-18T08:41:20.811Z,15.50
2022-10-18T08:44:07.760Z,15.50
2022-10-18T08:46:38.967Z,15.40
2022-10-18T08:49:10.020Z,15.40
2022-10-18T08:51:44.432Z,15.40
2022-10-18T08:54:15.984Z,15.30
2022-10-18T08:56:47.605Z,15.40
2022-10-18T08:59:16.158Z,15.30
2022-10-18T09:02:04.125Z,15.40
2022-10-18T09:04:38.443Z,15.50
2022-10-18T09:07:21.149Z,15.40
2022-10-18T09:10:07.656Z,15.40
2022-10-18T09:13:04.982Z,15.40
2022-10-18T09:16:05.189Z,15.40
2022-10-18T09:18:48.533Z,15.50
2022-10-18T09:21:23.199Z,15.60
2022-10-18T09:24:09.673Z,15.50
2022-10-18T09:26:46.552Z,15.50
2022-10-18T09:29:32.823Z,15.60
2022-10-18T09:32:07.194Z,15.50
2022-10-18T09:34:41.896Z,15.50
2022-10-18T09:37:16.264Z,15.50
2022-10-18T09:39:46.233Z,15.70
2022-10-18T09:42:25.457Z,15.70
2022-10-18T09:45:22.640Z,15.60
2022-10-18T09:48:13.925Z,15.70
2022-10-18T09:51:03.443Z,16.00
2022-10-18T09:53:46.870Z,16.50
2022-10-18T09:56:21.077Z,16.80
2022-10-18T09:58:51.447Z,16.70
2022-10-18T10:01:29.170Z,16.60
2022-10-18T10:03:57.744Z,16.80
2022-10-18T10:06:32.230Z,16.50
2022-10-18T10:09:03.946Z,16.30
2022-10-18T10:11:38.211Z,16.30
2022-10-18T10:14:12.773Z,16.40
2022-10-18T10:16:47.474Z,16.40
2022-10-18T10:19:33.975Z,16.50
2022-10-18T10:22:08.244Z,16.50
2022-10-18T10:24:51.181Z,16.50
2022-10-18T10:27:22.799Z,16.30
2022-10-18T10:29:55.876Z,16.30
2022-10-18T10:34:56.544Z,16.20
2022-10-18T10:37:27.796Z,16.30
2022-10-18T10:40:20.474Z,16.40
2022-10-18T10:43:18.113Z,16.50
2022-10-18T10:45:36.861Z,16.20
2022-10-18T10:48:11.182Z,16.40
2022-10-18T10:50:54.344Z,16.40
2022-10-18T10:53:30.720Z,16.30
2022-10-18T10:56:00.233Z,16.30
2022-10-18T10:58:31.892Z,16.30
2022-10-18T11:01:05.714Z,16.30
2022-10-18T11:03:34.644Z,16.10
2022-10-18T11:06:03.251Z,16.00
2022-10-18T11:08:40.467Z,15.90
2022-10-18T11:11:27.783Z,16.10
2022-10-18T11:14:26.157Z,16.00
2022-10-18T11:17:23.536Z,16.00
2022-10-18T11:20:04.979Z,16.10
2022-10-18T11:22:39.223Z,16.10
2022-10-18T11:25:09.579Z,15.90
2022-10-18T11:27:43.693Z,16.00
2022-10-18T11:30:33.513Z,16.10
2022-10-18T11:33:14.108Z,16.00
2022-10-18T11:36:06.774Z,16.20
2022-10-18T11:38:44.265Z,16.30
2022-10-18T11:41:42.626Z,16.40
2022-10-18T11:44:35.174Z,16.50
2022-10-18T11:47:26.150Z,16.40
2022-10-18T11:50:12.620Z,16.60
2022-10-18T11:52:55.743Z,17.00
2022-10-18T11:55:44.943Z,17.20
2022-10-18T11:58:25.425Z,18.10
2022-10-18T12:00:59.902Z,18.80
2022-10-18T12:03:37.028Z,19.50
2022-10-18T12:06:11.655Z,21.50
2022-10-18T12:08:43.175Z,23.20
2022-10-18T12:11:17.385Z,22.00
2022-10-18T12:13:49.305Z,21.60
2022-10-18T12:16:38.879Z,21.30
2022-10-18T12:18:57.393Z,21.90
2022-10-18T12:21:28.821Z,19.80
2022-10-18T12:24:09.376Z,20.70
2022-10-18T12:26:38.545Z,22.30
2022-10-18T12:29:10.104Z,24.30
2022-10-18T12:31:50.597Z,23.90
2022-10-18T12:34:22.133Z,24.20
2022-10-18T12:37:19.280Z,25.40
2022-10-18T12:40:11.521Z,25.20
2022-10-18T12:45:12.414Z,23.60
2022-10-18T13:29:49.378Z,23.00
2022-10-18T13:32:29.715Z,24.90
2022-10-18T13:34:58.717Z,26.60
2022-10-18T13:37:29.179Z,26.50
2022-10-18T13:40:18.045Z,26.30
2022-10-18T13:42:46.567Z,26.40
2022-10-18T13:45:36.323Z,27.30
2022-10-18T13:48:22.954Z,27.50
2022-10-18T13:50:51.760Z,29.20
2022-10-18T13:53:35.077Z,27.00
2022-10-18T13:56:12.621Z,24.70
2022-10-18T13:59:14.302Z,22.90
2022-10-18T14:01:56.030Z,23.60
2022-10-18T14:04:42.192Z,24.60
2022-10-18T14:07:12.470Z,25.10
2022-10-18T14:09:52.247Z,24.70
2022-10-18T14:12:23.039Z,23.20
2022-10-18T14:14:57.261Z,22.30
2022-10-18T14:17:31.811Z,23.40
2022-10-18T14:20:15.459Z,23.20
2022-10-18T14:22:52.084Z,22.80
2022-10-18T14:25:26.182Z,25.00
2022-10-18T14:28:11.532Z,26.50
2022-10-18T14:30:59.196Z,26.80
2022-10-18T14:33:47.918Z,27.80
2022-10-18T14:36:22.062Z,27.10
2022-10-18T14:38:59.138Z,28.10
2022-10-18T14:41:30.874Z,27.60
2022-10-18T14:44:19.136Z,27.90
2022-10-18T14:47:07.146Z,27.60
2022-10-18T14:49:37.192Z,27.60
2022-10-18T14:52:07.095Z,27.40
2022-10-18T14:54:38.309Z,27.50
2022-10-18T14:57:08.005Z,27.50
2022-10-18T14:59:42.222Z,26.60
2022-10-18T15:02:19.427Z,25.70
2022-10-18T15:04:49.972Z,26.30
2022-10-18T15:07:19.144Z,25.90
2022-10-18T15:10:05.870Z,25.90
2022-10-18T15:12:45.658Z,25.70
2022-10-18T15:15:05.692Z,26.00
2022-10-18T15:17:34.860Z,25.30
2022-10-18T15:20:06.489Z,25.50
2022-10-18T15:22:35.356Z,24.70
2022-10-18T15:25:18.436Z,22.20
2022-10-18T15:27:49.991Z,20.40
2022-10-18T15:30:24.619Z,19.60
2022-10-18T15:32:59.037Z,19.10
2022-10-18T15:35:30.792Z,20.90
2022-10-18T15:38:03.221Z,22.20
2022-10-18T15:40:36.921Z,23.10
2022-10-18T15:43:08.524Z,22.60
2022-10-18T15:45:40.148Z,22.30
2022-10-18T15:48:13.070Z,21.40
2022-10-18T15:50:52.856Z,21.60
2022-10-18T15:53:27.057Z,21.20
2022-10-18T15:56:07.732Z,19.40
2022-10-18T15:58:46.834Z,18.20
2022-10-18T16:01:18.171Z,17.30
2022-10-18T16:03:47.922Z,17.10
2022-10-18T16:06:18.316Z,16.70
2022-10-18T16:08:50.267Z,16.30
2022-10-18T16:11:21.748Z,16.10
2022-10-18T16:13:50.344Z,15.90
2022-10-18T16:16:21.895Z,15.60
2022-10-18T16:18:50.526Z,15.40
2022-10-18T16:21:22.161Z,15.20
2022-10-18T16:23:51.394Z,15.10
2022-10-18T16:26:21.417Z,15.00
2022-10-18T16:28:50.946Z,14.80
2022-10-18T16:31:22.360Z,14.50
2022-10-18T16:33:52.718Z,14.20
2022-10-18T16:36:26.836Z,14.00
2022-10-18T16:38:55.847Z,13.70
2022-10-18T16:41:24.764Z,13.60
2022-10-18T16:43:53.646Z,13.40
2022-10-18T16:46:26.710Z,13.40
2022-10-18T16:48:56.105Z,13.20
2022-10-18T16:51:24.628Z,13.00
2022-10-18T16:53:56.023Z,12.80
2022-10-18T16:56:27.663Z,12.80
2022-10-18T16:58:56.177Z,12.70
2022-10-18T17:01:25.740Z,12.40
2022-10-18T17:03:55.491Z,12.40
2022-10-18T17:06:29.588Z,12.30
2022-10-18T17:08:58.784Z,12.10
2022-10-18T17:11:29.085Z,12.10
2022-10-18T17:13:57.670Z,11.90
2022-10-18T17:16:31.862Z,11.80
2022-10-18T17:19:03.181Z,11.70
2022-10-18T17:21:33.440Z,11.60
2022-10-18T17:24:03.139Z,11.60
2022-10-18T17:26:31.796Z,11.90
2022-10-18T17:29:03.204Z,12.00
2022-10-18T17:31:32.661Z,11.70
2022-10-18T17:34:02.227Z,11.70
2022-10-18T17:36:32.727Z,11.70
2022-10-18T17:39:01.229Z,11.40
2022-10-18T17:41:29.855Z,11.30
2022-10-18T17:43:58.441Z,11.20
2022-10-18T17:46:27.181Z,11.10
2022-10-18T17:48:55.711Z,11.10
2022-10-18T17:51:24.581Z,10.90
2022-10-18T17:53:53.112Z,10.90
2022-10-18T17:56:21.722Z,10.70
2022-10-18T17:58:53.250Z,10.70
2022-10-18T18:01:23.890Z,10.70
2022-10-18T18:03:57.620Z,10.60
2022-10-18T18:06:33.523Z,10.90
2022-10-18T18:09:08.062Z,10.90
2022-10-18T18:11:38.448Z,10.60
2022-10-18T18:14:08.961Z,10.50
2022-10-18T18:16:40.297Z,10.50
2022-10-18T18:19:10.068Z,10.40
2022-10-18T18:21:39.295Z,10.50
2022-10-18T18:24:08.212Z,10.60
2022-10-18T18:26:37.403Z,10.70
2022-10-18T18:29:06.364Z,10.70
2022-10-18T18:31:38.860Z,10.50
2022-10-18T18:34:06.331Z,10.30
2022-10-18T18:36:34.963Z,10.20
2022-10-18T18:39:05.393Z,10.30
2022-10-18T18:41:34.082Z,10.20
2022-10-18T18:44:04.987Z,10.00
2022-10-18T18:46:37.306Z,9.90
2022-10-18T18:49:07.868Z,9.90
2022-10-18T18:51:39.546Z,9.70
2022-10-18T18:54:10.126Z,9.60
2022-10-18T18:56:40.232Z,9.50
2022-10-18T18:59:09.221Z,9.50
2022-10-18T19:01:38.937Z,9.40
2022-10-18T19:04:09.337Z,9.40
2022-10-18T19:06:41.052Z,9.50
2022-10-18T19:09:16.675Z,9.40
2022-10-18T19:11:46.482Z,9.30
2022-10-18T19:14:15.719Z,9.40
2022-10-18T19:16:51.690Z,9.40
2022-10-18T19:19:25.218Z,9.40
2022-10-18T19:21:55.801Z,9.30
2022-10-18T19:24:26.356Z,9.20
2022-10-18T19:27:00.565Z,9.00
2022-10-18T19:29:32.410Z,9.00
2022-10-18T19:32:03.866Z,9.00
2022-10-18T19:34:34.313Z,8.80
2022-10-18T19:37:03.008Z,8.80
2022-10-18T19:39:34.739Z,8.70
2022-10-18T19:42:06.230Z,8.70
2022-10-18T19:44:38.812Z,8.60
2022-10-18T19:47:10.220Z,8.60
2022-10-18T19:49:40.084Z,8.50
2022-10-18T19:52:08.676Z,8.60
2022-10-18T19:54:37.168Z,8.60
2022-10-18T19:57:05.810Z,8.60
2022-10-18T19:59:35.995Z,8.50
2022-10-18T20:02:04.984Z,8.40
2022-10-18T20:04:35.154Z,8.40
2022-10-18T20:07:03.724Z,8.40
2022-10-18T20:09:32.288Z,8.30
2022-10-18T20:12:00.730Z,8.50
2022-10-18T20:14:29.204Z,8.50
2022-10-18T20:16:57.780Z,8.40
2022-10-18T20:19:26.262Z,8.40
2022-10-18T20:21:57.572Z,8.40
2022-10-18T20:24:26.086Z,8.30
2022-10-18T20:26:54.607Z,8.30
2022-10-18T20:29:24.923Z,8.30
2022-10-18T20:31:55.110Z,8.30
2022-10-18T20:34:25.366Z,8.30
2022-10-18T20:36:55.974Z,8.40
2022-10-18T20:39:24.989Z,8.40
2022-10-18T20:41:53.555Z,8.30
2022-10-18T20:44:22.652Z,8.30
2022-10-18T20:46:51.195Z,8.20
2022-10-18T20:49:20.031Z,8.30
2022-10-18T20:51:48.515Z,8.20
2022-10-18T20:54:16.959Z,8.20
2022-10-18T20:56:45.540Z,8.30
2022-10-18T20:59:14.678Z,8.10
2022-10-18T21:01:43.516Z,8.20
2022-10-18T21:04:12.313Z,8.10
2022-10-18T21:06:43.386Z,8.00
2022-10-18T21:09:14.897Z,8.00
2022-10-18T21:11:46.176Z,8.00
2022-10-18T21:14:17.401Z,7.90
2022-10-18T21:16:46.820Z,7.80
2022-10-18T21:19:23.585Z,7.70
2022-10-18T21:21:54.896Z,7.90
2022-10-18T21:24:24.664Z,7.60
2022-10-18T21:26:54.681Z,7.60
2022-10-18T21:29:24.810Z,7.70
2022-10-18T21:31:58.503Z,7.70
2022-10-18T21:34:27.251Z,7.60
2022-10-18T21:36:55.706Z,7.80
2022-10-18T21:41:53.280Z,7.60
2022-10-18T21:44:21.911Z,7.60
2022-10-18T21:46:50.635Z,7.60
2022-10-18T21:49:19.204Z,7.70
2022-10-18T21:51:47.705Z,7.70
2022-10-18T21:54:17.610Z,7.40
2022-10-18T21:56:46.129Z,7.30
2022-10-18T21:59:14.642Z,7.30
2022-10-18T22:01:44.493Z,7.30
2022-10-18T22:04:22.198Z,7.20
2022-10-18T22:06:51.648Z,7.10
2022-10-18T22:09:21.893Z,7.20
2022-10-18T22:11:52.557Z,7.40
2022-10-18T22:14:21.609Z,7.40
2022-10-18T22:16:50.725Z,7.20
2022-10-18T22:19:19.380Z,7.10
2022-10-18T22:21:47.864Z,7.00
2022-10-18T22:24:16.558Z,7.10
2022-10-18T22:26:46.742Z,7.10
2022-10-18T22:29:17.704Z,7.20
2022-10-18T22:31:49.299Z,7.00
2022-10-18T22:34:23.496Z,6.90
2022-10-18T22:36:52.375Z,6.90
2022-10-18T22:39:21.353Z,6.90
2022-10-18T22:41:51.438Z,6.80
2022-10-18T22:44:19.948Z,6.90
2022-10-18T22:46:48.468Z,6.80
2022-10-18T22:49:16.968Z,6.70
2022-10-18T22:51:45.469Z,6.60
2022-10-18T22:54:13.894Z,6.90
2022-10-18T22:56:42.396Z,6.90
2022-10-18T22:59:11.007Z,6.60
2022-10-18T23:01:39.431Z,6.60
2022-10-18T23:04:07.966Z,6.50
2022-10-18T23:06:37.399Z,6.50
2022-10-18T23:09:08.965Z,6.40
2022-10-18T23:11:38.355Z,6.40
2022-10-18T23:14:07.512Z,6.30
2022-10-18T23:16:36.566Z,6.20
2022-10-18T23:19:05.259Z,6.30
2022-10-18T23:21:35.585Z,6.30
2022-10-18T23:24:04.230Z,6.10
2022-10-18T23:26:32.658Z,6.10
2022-10-18T23:29:01.638Z,6.00
2022-10-18T23:31:32.819Z,6.20
2022-10-18T23:34:03.892Z,6.10
2022-10-18T23:36:33.265Z,6.10
2022-10-18T23:39:02.316Z,6.10
2022-10-18T23:41:30.841Z,6.10
2022-10-18T23:43:59.279Z,6.10
2022-10-18T23:46:27.751Z,6.00
2022-10-18T23:48:56.338Z,5.90
2022-10-18T23:51:24.865Z,5.90
2022-10-18T23:53:53.281Z,5.70
2022-10-18T23:56:21.747Z,5.80
2022-10-18T23:58:50.253Z,5.70
